sim
Sign-in with your pilot id or email,
or register
Callsign
Passwort

Schedule Details

Flight Number: RYR5082 (1)
Departure: Paphos International Airport (LCPH) at 18:40
Arrival: Thessaloniki International Airport (LGTS) at 20:45
Route: Ryanair Passenger Schedule. Enter filed route here before submitting Pirep.

Weather Information
Getting current METAR information for LCPH 211500Z 09005KT 030V130 9999 FEW020 FEW030TCU 16/09 Q1019
Getting current METAR information for LGTS 211520Z 35006KT CAVOK 16/00 Q1021 NOSIG

Schedule Frequency

Route Map